Time,TemperatureF,DewpointF,PressureIn,WindDirection,WindDirectionDegrees,WindSpeedMPH,WindSpeedGustMPH,Humidity,HourlyPrecipIn,Conditions,Clouds,dailyrainin,SolarRadiationWatts/m^2,SoftwareType,DateUTC
2013-04-19 00:23:00,66.0,66.0,-100.00,East,80,3.0,14.0,100,0.06,,,0.25,0.000000,,2013-04-19 10:23:00,
2013-04-19 00:33:00,66.0,66.0,-100.00,East,80,3.0,14.0,100,0.06,,,0.25,0.000000,,2013-04-19 10:33:00,
2013-04-19 00:42:00,66.0,66.0,-100.00,East,80,3.0,14.0,100,0.06,,,0.25,0.000000,,2013-04-19 10:42:00,
2013-04-19 00:52:00,66.0,66.0,-100.00,East,80,3.0,14.0,100,0.06,,,0.25,0.000000,,2013-04-19 10:52:00,
2013-04-19 01:22:00,66.0,66.0,-100.00,ENE,77,5.0,10.0,100,0.04,,,0.29,0.000000,,2013-04-19 11:22:00,
2013-04-19 01:32:00,66.0,66.0,-100.00,ENE,77,5.0,10.0,100,0.04,,,0.29,0.000000,,2013-04-19 11:32:00,
2013-04-19 01:42:00,66.0,66.0,-100.00,ENE,77,5.0,10.0,100,0.04,,,0.29,0.000000,,2013-04-19 11:42:00,
2013-04-19 01:52:00,66.0,66.0,-100.00,ENE,77,5.0,10.0,100,0.04,,,0.29,0.000000,,2013-04-19 11:52:00,
2013-04-19 02:22:00,66.0,66.0,-100.00,East,83,4.0,10.0,100,0.03,,,0.32,0.000000,,2013-04-19 12:22:00,
2013-04-19 02:32:00,66.0,66.0,-100.00,East,83,4.0,10.0,100,0.03,,,0.32,0.000000,,2013-04-19 12:32:00,
2013-04-19 02:42:00,66.0,66.0,-100.00,East,83,4.0,10.0,100,0.03,,,0.32,0.000000,,2013-04-19 12:42:00,
2013-04-19 02:52:00,66.0,66.0,-100.00,East,83,4.0,10.0,100,0.03,,,0.32,0.000000,,2013-04-19 12:52:00,
2013-04-19 03:21:00,64.0,64.0,-100.00,NE,54,3.0,7.0,100,0.00,,,0.32,0.000000,,2013-04-19 13:21:00,
2013-04-19 03:32:00,64.0,64.0,-100.00,NE,54,3.0,7.0,100,0.00,,,0.32,0.000000,,2013-04-19 13:32:00,
2013-04-19 03:42:00,64.0,64.0,-100.00,NE,54,3.0,7.0,100,0.00,,,0.32,0.000000,,2013-04-19 13:42:00,
2013-04-19 03:52:00,64.0,64.0,-100.00,NE,54,3.0,7.0,100,0.00,,,0.32,0.000000,,2013-04-19 13:52:00,
2013-04-19 04:21:00,64.0,64.0,-100.00,ENE,72,4.0,12.0,100,0.00,,,-99.99,0.000000,,2013-04-19 14:21:00,
2013-04-19 04:32:00,64.0,64.0,-100.00,ENE,72,4.0,12.0,100,0.00,,,-99.99,0.000000,,2013-04-19 14:32:00,
2013-04-19 04:42:00,64.0,64.0,-100.00,ENE,72,4.0,12.0,100,0.00,,,-99.99,0.000000,,2013-04-19 14:42:00,
2013-04-19 04:52:00,64.0,64.0,-100.00,ENE,72,4.0,12.0,100,0.00,,,-99.99,0.000000,,2013-04-19 14:52:00,
2013-04-19 05:21:00,65.0,65.0,-100.00,NE,39,2.0,8.0,100,0.00,,,0.32,0.000000,,2013-04-19 15:21:00,
2013-04-19 05:33:00,65.0,65.0,-100.00,NE,39,2.0,8.0,100,0.00,,,0.32,0.000000,,2013-04-19 15:33:00,
2013-04-19 05:43:00,65.0,65.0,-100.00,NE,39,2.0,8.0,100,0.00,,,0.32,0.000000,,2013-04-19 15:43:00,
2013-04-19 05:52:00,65.0,65.0,-100.00,NE,39,2.0,8.0,100,0.00,,,0.32,0.000000,,2013-04-19 15:52:00,
2013-04-19 06:23:00,65.0,65.0,-100.00,NNW,328,2.0,7.0,100,0.01,,,0.33,0.000000,,2013-04-19 16:23:00,
2013-04-19 06:32:00,65.0,65.0,-100.00,NNW,328,2.0,7.0,100,0.01,,,0.33,0.000000,,2013-04-19 16:32:00,
2013-04-19 06:42:00,65.0,65.0,-100.00,NNW,328,2.0,7.0,100,0.01,,,0.33,0.000000,,2013-04-19 16:42:00,
2013-04-19 06:52:00,65.0,65.0,-100.00,NNW,328,2.0,7.0,100,0.01,,,0.33,0.000000,,2013-04-19 16:52:00,
2013-04-19 07:21:00,65.0,65.0,-100.00,North,10,1.0,6.0,100,0.05,,,0.37,6.000000,,2013-04-19 17:21:00,
2013-04-19 07:32:00,65.0,65.0,-100.00,North,10,1.0,6.0,100,0.05,,,0.37,6.000000,,2013-04-19 17:32:00,
2013-04-19 07:42:00,65.0,65.0,-100.00,North,10,1.0,6.0,100,0.05,,,0.37,6.000000,,2013-04-19 17:42:00,
2013-04-19 07:52:00,65.0,65.0,-100.00,North,10,1.0,6.0,100,0.05,,,0.37,6.000000,,2013-04-19 17:52:00,
2013-04-19 08:22:00,68.0,68.0,-100.00,ENE,72,4.0,13.0,100,0.07,,,0.43,86.000000,,2013-04-19 18:22:00,
2013-04-19 08:33:00,68.0,68.0,-100.00,ENE,72,4.0,13.0,100,0.07,,,0.43,86.000000,,2013-04-19 18:33:00,
2013-04-19 08:42:00,68.0,68.0,-100.00,ENE,72,4.0,13.0,100,0.07,,,0.43,86.000000,,2013-04-19 18:42:00,
2013-04-19 08:52:00,68.0,68.0,-100.00,ENE,72,4.0,13.0,100,0.07,,,0.43,86.000000,,2013-04-19 18:52:00,
2013-04-19 09:21:00,68.0,68.0,-100.00,East,87,8.0,22.0,100,0.03,,,0.44,214.000000,,2013-04-19 19:21:00,
2013-04-19 09:32:00,68.0,68.0,-100.00,East,87,8.0,22.0,100,0.03,,,0.44,214.000000,,2013-04-19 19:32:00,
2013-04-19 09:41:00,68.0,68.0,-100.00,East,87,8.0,22.0,100,0.03,,,0.44,214.000000,,2013-04-19 19:41:00,
2013-04-19 09:52:00,68.0,68.0,-100.00,East,87,8.0,22.0,100,0.03,,,0.44,214.000000,,2013-04-19 19:52:00,
2013-04-19 10:22:00,69.0,68.0,-100.00,East,87,9.0,18.0,98,0.01,,,0.45,421.000000,,2013-04-19 20:22:00,
2013-04-19 10:32:00,69.0,68.0,-100.00,East,87,9.0,18.0,98,0.01,,,0.45,421.000000,,2013-04-19 20:32:00,
2013-04-19 10:41:00,69.0,68.0,-100.00,East,87,9.0,18.0,98,0.01,,,0.45,421.000000,,2013-04-19 20:41:00,
2013-04-19 10:51:00,69.0,68.0,-100.00,East,87,9.0,18.0,98,0.01,,,0.45,421.000000,,2013-04-19 20:51:00,
2013-04-19 11:21:00,70.0,68.0,-100.00,ESE,116,8.0,24.0,95,0.01,,,0.46,726.000000,,2013-04-19 21:21:00,
2013-04-19 11:32:00,70.0,68.0,-100.00,ESE,116,8.0,24.0,95,0.01,,,0.46,726.000000,,2013-04-19 21:32:00,
2013-04-19 11:42:00,70.0,68.0,-100.00,ESE,116,8.0,24.0,95,0.01,,,0.46,726.000000,,2013-04-19 21:42:00,
2013-04-19 11:52:00,70.0,68.0,-100.00,ESE,116,8.0,24.0,95,0.01,,,0.46,726.000000,,2013-04-19 21:52:00,
2013-04-19 12:22:00,72.0,71.0,-100.00,ESE,106,7.0,22.0,97,0.01,,,0.47,603.000000,,2013-04-19 22:22:00,
2013-04-19 12:33:00,72.0,71.0,-100.00,ESE,106,7.0,22.0,97,0.01,,,0.47,603.000000,,2013-04-19 22:33:00,
2013-04-19 12:42:00,72.0,71.0,-100.00,ESE,106,7.0,22.0,97,0.01,,,0.47,603.000000,,2013-04-19 22:42:00,
2013-04-19 12:52:00,72.0,71.0,-100.00,ESE,106,7.0,22.0,97,0.01,,,0.47,603.000000,,2013-04-19 22:52:00,
2013-04-19 13:22:00,71.0,70.0,-100.00,ESE,109,9.0,22.0,97,0.01,,,0.48,874.000000,,2013-04-19 23:22:00,
2013-04-19 13:32:00,71.0,70.0,-100.00,ESE,109,9.0,22.0,97,0.01,,,0.48,874.000000,,2013-04-19 23:32:00,
2013-04-19 13:42:00,71.0,70.0,-100.00,ESE,109,9.0,22.0,97,0.01,,,0.48,874.000000,,2013-04-19 23:42:00,
2013-04-19 13:52:00,71.0,70.0,-100.00,ESE,109,9.0,22.0,97,0.01,,,0.48,874.000000,,2013-04-19 23:52:00,
2013-04-19 14:21:00,74.0,71.0,-100.00,ESE,107,11.0,23.0,91,0.00,,,0.47,1095.000000,,2013-04-20 00:21:00,
2013-04-19 14:32:00,74.0,71.0,-100.00,ESE,107,11.0,23.0,91,0.00,,,0.47,1095.000000,,2013-04-20 00:32:00,
2013-04-19 14:41:00,74.0,71.0,-100.00,ESE,107,11.0,23.0,91,0.00,,,0.47,1095.000000,,2013-04-20 00:41:00,
2013-04-19 14:51:00,74.0,71.0,-100.00,ESE,107,11.0,23.0,91,0.00,,,0.47,1095.000000,,2013-04-20 00:51:00,
2013-04-19 15:21:00,74.0,71.0,-100.00,East,97,8.0,25.0,89,0.00,,,0.47,,,2013-04-20 01:21:00,
2013-04-19 15:32:00,74.0,71.0,-100.00,East,97,8.0,25.0,89,0.00,,,0.47,,,2013-04-20 01:32:00,
2013-04-19 15:42:00,74.0,71.0,-100.00,East,97,8.0,25.0,89,0.00,,,0.47,,,2013-04-20 01:42:00,
2013-04-19 15:52:00,74.0,71.0,-100.00,East,97,8.0,25.0,89,0.00,,,0.47,,,2013-04-20 01:52:00,
2013-04-19 16:21:00,71.0,67.0,-100.00,East,96,12.0,28.0,86,0.01,,,0.48,,,2013-04-20 02:21:00,
2013-04-19 16:32:00,71.0,67.0,-100.00,East,96,12.0,28.0,86,0.01,,,0.48,,,2013-04-20 02:32:00,
2013-04-19 16:42:00,71.0,67.0,-100.00,East,96,12.0,28.0,86,0.01,,,0.48,,,2013-04-20 02:42:00,
2013-04-19 16:52:00,71.0,67.0,-100.00,East,96,12.0,28.0,86,0.01,,,0.48,,,2013-04-20 02:52:00,
2013-04-19 17:21:00,73.0,69.0,-100.00,East,98,7.0,30.0,86,0.00,,,0.48,509.000000,,2013-04-20 03:21:00,
2013-04-19 17:33:00,73.0,69.0,-100.00,East,98,7.0,30.0,86,0.00,,,0.48,509.000000,,2013-04-20 03:33:00,
2013-04-19 17:43:00,73.0,69.0,-100.00,East,98,7.0,30.0,86,0.00,,,0.48,509.000000,,2013-04-20 03:43:00,
2013-04-19 17:52:00,73.0,69.0,-100.00,East,98,7.0,30.0,86,0.00,,,0.48,509.000000,,2013-04-20 03:52:00,
2013-04-19 18:23:00,69.0,68.0,-100.00,East,100,9.0,24.0,97,0.00,,,0.47,175.000000,,2013-04-20 04:23:00,
2013-04-19 18:32:00,69.0,68.0,-100.00,East,100,9.0,24.0,97,0.00,,,0.47,175.000000,,2013-04-20 04:32:00,
2013-04-19 18:42:00,69.0,68.0,-100.00,East,100,9.0,24.0,97,0.00,,,0.47,175.000000,,2013-04-20 04:42:00,
2013-04-19 18:52:00,69.0,68.0,-100.00,East,100,9.0,24.0,97,0.00,,,0.47,175.000000,,2013-04-20 04:52:00,
2013-04-19 19:22:00,67.0,67.0,-100.00,East,100,6.0,26.0,100,0.03,,,0.49,48.000000,,2013-04-20 05:22:00,
2013-04-19 19:32:00,67.0,67.0,-100.00,East,100,6.0,26.0,100,0.03,,,0.49,48.000000,,2013-04-20 05:32:00,
2013-04-19 19:42:00,67.0,67.0,-100.00,East,100,6.0,26.0,100,0.03,,,0.49,48.000000,,2013-04-20 05:42:00,
2013-04-19 19:51:00,67.0,67.0,-100.00,East,100,6.0,26.0,100,0.03,,,0.49,48.000000,,2013-04-20 05:51:00,
2013-04-19 20:21:00,66.0,66.0,-100.00,East,99,8.0,18.0,100,0.03,,,0.48,0.000000,,2013-04-20 06:21:00,
2013-04-19 20:32:00,66.0,66.0,-100.00,East,99,8.0,18.0,100,0.03,,,0.48,0.000000,,2013-04-20 06:32:00,
2013-04-19 20:42:00,66.0,66.0,-100.00,East,99,8.0,18.0,100,0.03,,,0.48,0.000000,,2013-04-20 06:42:00,
2013-04-19 20:52:00,66.0,66.0,-100.00,East,99,8.0,18.0,100,0.03,,,0.48,0.000000,,2013-04-20 06:52:00,
2013-04-19 21:21:00,66.0,66.0,-100.00,NNW,327,6.0,17.0,100,0.07,,,0.54,0.000000,,2013-04-20 07:21:00,
2013-04-19 21:32:00,66.0,66.0,-100.00,NNW,327,6.0,17.0,100,0.07,,,0.54,0.000000,,2013-04-20 07:32:00,
2013-04-19 21:42:00,66.0,66.0,-100.00,NNW,327,6.0,17.0,100,0.07,,,0.54,0.000000,,2013-04-20 07:42:00,
2013-04-19 21:52:00,66.0,66.0,-100.00,NNW,327,6.0,17.0,100,0.07,,,0.54,0.000000,,2013-04-20 07:52:00,
2013-04-19 22:21:00,67.0,67.0,-100.00,WSW,249,4.0,13.0,100,0.01,,,0.52,0.000000,,2013-04-20 08:21:00,
2013-04-19 22:31:00,67.0,67.0,-100.00,WSW,249,4.0,13.0,100,0.01,,,0.52,0.000000,,2013-04-20 08:31:00,
2013-04-19 22:42:00,67.0,67.0,-100.00,WSW,249,4.0,13.0,100,0.01,,,0.52,0.000000,,2013-04-20 08:42:00,
2013-04-19 22:51:00,67.0,67.0,-100.00,WSW,249,4.0,13.0,100,0.01,,,0.52,0.000000,,2013-04-20 08:51:00,
2013-04-19 23:21:00,67.0,67.0,-100.00,ESE,113,5.0,13.0,100,0.01,,,0.49,0.000000,,2013-04-20 09:21:00,
2013-04-19 23:32:00,67.0,67.0,-100.00,ESE,113,5.0,13.0,100,0.01,,,0.49,0.000000,,2013-04-20 09:32:00,
2013-04-19 23:43:00,67.0,67.0,-100.00,ESE,113,5.0,13.0,100,0.01,,,0.49,0.000000,,2013-04-20 09:43:00,
2013-04-19 23:52:00,67.0,67.0,-100.00,ESE,113,5.0,13.0,100,0.01,,,0.49,0.000000,,2013-04-20 09:52:00,